createdAt,value
2023-01-13T00:01:21.074Z,3.50
2023-01-13T00:04:29.728Z,3.65
2023-01-13T00:07:38.579Z,3.45
2023-01-13T00:10:53.676Z,3.34
2023-01-13T00:14:08.724Z,3.45
2023-01-13T00:17:16.730Z,3.20
2023-01-13T00:20:31.714Z,3.45
2023-01-13T00:23:41.691Z,3.50
2023-01-13T00:26:56.714Z,3.50
2023-01-13T00:30:05.697Z,3.47
2023-01-13T00:33:20.706Z,3.49
2023-01-13T00:36:22.793Z,3.56
2023-01-13T00:39:44.712Z,3.64
2023-01-13T00:42:53.322Z,3.67
2023-01-13T00:46:08.760Z,3.71
2023-01-13T00:49:16.712Z,3.62
2023-01-13T00:52:25.675Z,3.65
2023-01-13T00:55:36.754Z,3.67
2023-01-13T00:58:46.877Z,3.58
2023-01-13T01:01:54.818Z,3.58
2023-01-13T01:05:03.468Z,3.45
2023-01-13T01:08:12.721Z,3.51
2023-01-13T01:11:30.742Z,3.55
2023-01-13T01:14:32.710Z,3.55
2023-01-13T01:17:47.748Z,3.43
2023-01-13T01:20:51.983Z,3.68
2023-01-13T01:24:08.736Z,3.69
2023-01-13T01:27:10.557Z,3.76
2023-01-13T01:30:25.731Z,3.53
2023-01-13T01:33:28.187Z,3.54
2023-01-13T01:36:42.747Z,3.60
2023-01-13T01:39:57.751Z,3.66
2023-01-13T01:43:19.499Z,3.79
2023-01-13T01:46:27.801Z,3.67
2023-01-13T01:49:37.921Z,3.61
2023-01-13T01:52:50.784Z,3.52
2023-01-13T01:56:00.405Z,3.51
2023-01-13T01:59:09.741Z,3.53
2023-01-13T02:02:18.655Z,3.51
2023-01-13T02:05:29.750Z,3.44
2023-01-13T02:08:40.923Z,3.48
2023-01-13T02:11:49.747Z,3.42
2023-01-13T02:15:19.762Z,3.43
2023-01-13T02:18:41.561Z,3.51
2023-01-13T02:22:23.786Z,3.50
2023-01-13T02:26:00.745Z,3.49
2023-01-13T02:29:23.983Z,3.47
2023-01-13T02:32:51.772Z,3.56
2023-01-13T02:36:10.264Z,3.59
2023-01-13T02:39:25.804Z,3.54
2023-01-13T02:42:45.519Z,3.56
2023-01-13T02:46:13.763Z,3.49
2023-01-13T02:49:31.196Z,3.29
2023-01-13T02:52:45.781Z,3.35
2023-01-13T02:56:03.754Z,3.35
2023-01-13T02:59:06.775Z,3.29
2023-01-13T03:02:25.831Z,3.28
2023-01-13T03:05:31.503Z,3.26
2023-01-13T03:08:59.828Z,3.28
2023-01-13T03:12:22.769Z,3.30
2023-01-13T03:15:43.456Z,3.35
2023-01-13T03:19:07.773Z,3.25
2023-01-13T03:22:54.824Z,3.22
2023-01-13T03:26:15.262Z,3.08
2023-01-13T03:29:28.808Z,3.16
2023-01-13T03:32:49.811Z,3.20
2023-01-13T03:36:04.792Z,3.17
2023-01-13T03:39:34.837Z,3.19
2023-01-13T03:42:52.780Z,3.17
2023-01-13T03:46:09.005Z,3.28
2023-01-13T03:49:22.821Z,3.37
2023-01-13T03:52:36.322Z,3.39
2023-01-13T03:55:50.886Z,3.42
2023-01-13T03:59:09.819Z,3.48
2023-01-13T04:02:19.650Z,3.57
2023-01-13T04:05:35.808Z,3.61
2023-01-13T04:08:54.546Z,3.59
2023-01-13T04:12:12.797Z,3.59
2023-01-13T04:15:30.857Z,3.57
2023-01-13T04:18:36.437Z,3.35
2023-01-13T04:21:50.844Z,3.59
2023-01-13T04:24:52.729Z,3.56
2023-01-13T04:28:07.913Z,3.51
2023-01-13T04:31:10.232Z,3.48
2023-01-13T04:34:26.381Z,3.52
2023-01-13T04:37:36.804Z,3.49
2023-01-13T04:40:58.834Z,3.58
2023-01-13T04:44:06.823Z,3.48
2023-01-13T04:47:21.874Z,3.59
2023-01-13T04:50:31.414Z,3.56
2023-01-13T04:53:39.888Z,3.51
2023-01-13T04:56:48.511Z,3.65
2023-01-13T05:00:02.848Z,3.67
2023-01-13T05:03:11.845Z,3.59
2023-01-13T05:06:20.577Z,3.57
2023-01-13T05:09:29.867Z,3.60
2023-01-13T05:12:38.434Z,3.56
2023-01-13T05:15:47.893Z,3.58
2023-01-13T05:18:56.733Z,3.59
2023-01-13T05:22:05.856Z,3.56
2023-01-13T05:25:20.853Z,3.59
2023-01-13T05:28:28.861Z,3.55
2023-01-13T05:31:43.907Z,3.50
2023-01-13T05:34:45.757Z,3.60
2023-01-13T05:38:02.951Z,3.64
2023-01-13T05:41:17.890Z,3.60
2023-01-13T05:44:32.864Z,3.66
2023-01-13T05:47:40.856Z,3.70
2023-01-13T05:50:49.875Z,3.70
2023-01-13T05:53:58.857Z,3.70
2023-01-13T05:57:13.891Z,3.63
2023-01-13T06:00:16.667Z,3.68
2023-01-13T06:03:32.887Z,3.71
2023-01-13T06:06:34.663Z,3.68
2023-01-13T06:09:49.885Z,3.51
2023-01-13T06:12:52.068Z,3.49
2023-01-13T06:16:06.935Z,3.51
2023-01-13T06:19:09.139Z,3.52
2023-01-13T06:22:29.920Z,3.52
2023-01-13T06:25:50.898Z,3.54
2023-01-13T06:29:05.896Z,3.28
2023-01-13T06:32:22.866Z,3.24
2023-01-13T06:35:34.782Z,3.24
2023-01-13T06:38:55.917Z,3.40
2023-01-13T06:42:04.628Z,3.29
2023-01-13T06:45:18.884Z,3.21
2023-01-13T06:48:31.194Z,3.34
2023-01-13T06:51:39.934Z,3.39
2023-01-13T06:54:54.892Z,3.26
2023-01-13T06:58:00.719Z,3.35
2023-01-13T07:01:16.116Z,3.25
2023-01-13T07:04:24.916Z,3.37
2023-01-13T07:07:33.654Z,3.39
2023-01-13T07:10:43.912Z,3.48
2023-01-13T07:13:59.041Z,3.53
2023-01-13T07:17:00.908Z,3.66
2023-01-13T07:20:16.913Z,3.72
2023-01-13T07:23:18.869Z,3.64
2023-01-13T07:26:33.967Z,3.65
2023-01-13T07:29:36.139Z,3.76
2023-01-13T07:32:50.919Z,4.12
2023-01-13T07:36:01.697Z,4.09
2023-01-13T07:39:16.929Z,4.12
2023-01-13T07:42:32.959Z,5.01
2023-01-13T07:45:48.007Z,4.54
2023-01-13T07:48:57.080Z,4.42
2023-01-13T07:52:11.918Z,4.32
2023-01-13T07:55:15.873Z,4.35
2023-01-13T07:58:32.014Z,4.13
2023-01-13T08:01:41.125Z,4.25
2023-01-13T08:04:51.092Z,4.16
2023-01-13T08:08:08.719Z,4.02
2023-01-13T08:11:18.135Z,3.99
2023-01-13T08:14:40.035Z,4.17
2023-01-13T08:17:42.526Z,4.18
2023-01-13T08:21:02.359Z,4.24
2023-01-13T08:24:13.587Z,4.35
2023-01-13T08:27:28.027Z,4.70
2023-01-13T08:30:37.986Z,5.73
2023-01-13T08:33:54.043Z,5.56
2023-01-13T08:36:55.903Z,6.59
2023-01-13T08:40:12.026Z,5.74
2023-01-13T08:43:32.047Z,5.08
2023-01-13T08:46:39.998Z,4.75
2023-01-13T08:49:49.220Z,4.37
2023-01-13T08:52:57.963Z,4.44
2023-01-13T08:56:08.104Z,4.68
2023-01-13T08:59:26.961Z,4.36
2023-01-13T09:02:37.082Z,4.35
2023-01-13T09:05:46.032Z,6.04
2023-01-13T09:08:54.752Z,6.71
2023-01-13T09:12:02.999Z,6.35
2023-01-13T09:15:18.970Z,5.52
2023-01-13T09:18:21.004Z,5.24
2023-01-13T09:21:35.999Z,5.07
2023-01-13T09:24:37.989Z,4.52
2023-01-13T09:27:52.979Z,3.99
2023-01-13T09:30:55.308Z,3.97
2023-01-13T09:34:12.018Z,4.66
2023-01-13T09:37:14.099Z,4.91
2023-01-13T09:40:39.838Z,4.52
2023-01-13T09:43:54.990Z,5.06
2023-01-13T09:47:16.042Z,4.24
2023-01-13T09:50:35.031Z,4.01
2023-01-13T09:53:57.032Z,4.03
2023-01-13T09:57:06.069Z,3.68
2023-01-13T10:00:25.108Z,4.34
2023-01-13T10:03:37.046Z,4.20
2023-01-13T10:06:52.150Z,4.10
2023-01-13T10:10:04.022Z,4.07
2023-01-13T10:13:28.011Z,4.09
2023-01-13T10:16:40.024Z,4.11
2023-01-13T10:20:03.049Z,4.68
2023-01-13T10:23:33.405Z,4.86
2023-01-13T10:27:09.965Z,4.77
2023-01-13T10:30:31.987Z,4.63
2023-01-13T10:33:47.284Z,4.59
2023-01-13T10:37:08.021Z,4.55
2023-01-13T10:40:23.335Z,5.33
2023-01-13T10:43:39.015Z,5.04
2023-01-13T10:47:01.012Z,4.97
2023-01-13T10:50:35.085Z,4.60
2023-01-13T10:53:56.149Z,4.46
2023-01-13T10:57:17.887Z,4.24
2023-01-13T11:00:37.972Z,3.81
2023-01-13T11:03:46.738Z,3.93
2023-01-13T11:06:54.997Z,4.60
2023-01-13T11:10:32.023Z,4.66
2023-01-13T11:13:39.859Z,4.94
2023-01-13T11:17:00.032Z,5.16
2023-01-13T11:20:24.059Z,5.12
2023-01-13T11:23:46.073Z,4.65
2023-01-13T11:27:08.138Z,4.47
2023-01-13T11:30:22.925Z,4.46
2023-01-13T11:33:48.036Z,5.46
2023-01-13T11:37:00.348Z,5.22
2023-01-13T11:40:26.035Z,4.74
2023-01-13T11:43:49.089Z,4.74
2023-01-13T11:46:52.921Z,4.32
2023-01-13T11:50:09.040Z,4.22
2023-01-13T11:53:39.052Z,4.25
2023-01-13T11:57:24.100Z,4.23
2023-01-13T12:00:43.026Z,4.16
2023-01-13T12:04:11.562Z,4.42
2023-01-13T12:07:28.077Z,4.63
2023-01-13T12:10:46.449Z,4.58
2023-01-13T12:14:23.102Z,4.43
2023-01-13T12:18:05.032Z,4.06
2023-01-13T12:21:19.924Z,3.98
2023-01-13T12:24:47.070Z,4.00
2023-01-13T12:28:07.118Z,4.09
2023-01-13T12:31:18.183Z,3.97
2023-01-13T12:34:50.053Z,3.90
2023-01-13T12:38:14.060Z,3.91
2023-01-13T12:41:44.922Z,4.03
2023-01-13T12:48:52.063Z,4.31
2023-01-13T12:52:15.354Z,4.45
2023-01-13T12:55:34.069Z,4.49
2023-01-13T12:58:36.213Z,4.46
2023-01-13T13:01:54.169Z,4.44
2023-01-13T13:04:59.501Z,4.51
2023-01-13T13:08:30.059Z,4.64
2023-01-13T13:11:46.097Z,4.54
2023-01-13T13:15:03.114Z,4.53
2023-01-13T13:18:29.100Z,4.73
2023-01-13T13:22:04.129Z,4.97
2023-01-13T13:25:21.557Z,5.04
2023-01-13T13:28:31.059Z,5.22
2023-01-13T13:31:59.856Z,5.25
2023-01-13T13:35:29.084Z,5.32
2023-01-13T13:39:14.178Z,5.37
2023-01-13T13:42:27.069Z,5.20
2023-01-13T13:45:42.130Z,5.00
2023-01-13T13:48:59.144Z,4.88
2023-01-13T13:52:33.682Z,5.05
2023-01-13T13:55:43.076Z,5.16
2023-01-13T13:58:59.106Z,4.96
2023-01-13T14:02:10.278Z,5.16
2023-01-13T14:05:30.159Z,5.26
2023-01-13T14:08:36.862Z,5.42
2023-01-13T14:12:06.051Z,5.52
2023-01-13T14:15:24.456Z,5.60
2023-01-13T14:18:53.056Z,5.69
2023-01-13T14:22:02.378Z,5.66
2023-01-13T14:25:34.070Z,5.68
2023-01-13T14:28:45.070Z,5.70
2023-01-13T14:31:54.669Z,5.83
2023-01-13T14:35:03.058Z,5.80
2023-01-13T14:38:23.056Z,5.88
2023-01-13T14:41:54.030Z,5.95
2023-01-13T14:45:03.399Z,5.92
2023-01-13T14:48:16.314Z,5.92
2023-01-13T14:51:27.964Z,5.92
2023-01-13T14:54:53.037Z,6.00
2023-01-13T14:58:21.572Z,6.02
2023-01-13T15:01:40.241Z,5.76
2023-01-13T15:04:49.098Z,5.65
2023-01-13T15:08:08.077Z,5.67
2023-01-13T15:11:29.094Z,5.62
2023-01-13T15:14:34.078Z,5.65
2023-01-13T15:17:49.093Z,5.62
2023-01-13T15:20:51.446Z,5.57
2023-01-13T15:24:06.071Z,5.69
2023-01-13T15:27:17.655Z,5.63
2023-01-13T15:30:34.036Z,5.62
2023-01-13T15:33:35.823Z,5.49
2023-01-13T15:36:51.115Z,5.31
2023-01-13T15:39:59.092Z,5.27
2023-01-13T15:43:18.036Z,5.31
2023-01-13T15:46:27.079Z,5.23
2023-01-13T15:49:51.131Z,5.29
2023-01-13T15:52:52.971Z,5.34
2023-01-13T15:56:09.065Z,5.30
2023-01-13T15:59:25.064Z,5.36
2023-01-13T16:02:40.158Z,5.56
2023-01-13T16:05:42.740Z,5.53
2023-01-13T16:08:57.174Z,5.58
2023-01-13T16:12:06.067Z,5.61
2023-01-13T16:15:23.116Z,5.65
2023-01-13T16:18:24.953Z,5.63
2023-01-13T16:21:40.132Z,5.65
2023-01-13T16:24:42.368Z,5.58
2023-01-13T16:27:59.141Z,5.57
2023-01-13T16:31:15.983Z,5.59
2023-01-13T16:34:31.192Z,5.54
2023-01-13T16:37:33.057Z,5.55
2023-01-13T16:40:51.155Z,5.60
2023-01-13T16:44:00.404Z,5.66
2023-01-13T16:47:21.172Z,5.74
2023-01-13T16:50:41.657Z,5.71
2023-01-13T16:53:58.208Z,5.57
2023-01-13T16:57:13.183Z,5.68
2023-01-13T17:00:15.918Z,5.72
2023-01-13T17:03:30.210Z,5.76
2023-01-13T17:06:50.177Z,5.72
2023-01-13T17:10:05.279Z,5.87
2023-01-13T17:13:15.926Z,5.84
2023-01-13T17:16:31.222Z,5.84
2023-01-13T17:19:39.154Z,5.88
2023-01-13T17:22:57.746Z,5.87
2023-01-13T17:26:06.183Z,5.75
2023-01-13T17:29:24.207Z,5.64
2023-01-13T17:32:33.197Z,5.77
2023-01-13T17:35:48.177Z,5.90
2023-01-13T17:38:50.645Z,5.96
2023-01-13T17:42:12.295Z,5.98
2023-01-13T17:45:27.278Z,6.01
2023-01-13T17:48:36.387Z,5.96
2023-01-13T17:51:45.197Z,6.02
2023-01-13T17:55:00.223Z,5.91
2023-01-13T17:58:02.204Z,5.96
2023-01-13T18:01:22.305Z,5.95
2023-01-13T18:04:25.884Z,5.96
2023-01-13T18:07:40.230Z,5.92
2023-01-13T18:10:49.213Z,5.92
2023-01-13T18:14:05.217Z,5.98
2023-01-13T18:17:07.304Z,6.00
2023-01-13T18:20:25.213Z,5.98
2023-01-13T18:23:27.035Z,6.08
2023-01-13T18:26:43.204Z,6.06
2023-01-13T18:29:47.087Z,6.14
2023-01-13T18:33:02.249Z,6.13
2023-01-13T18:36:08.214Z,6.10
2023-01-13T18:39:23.268Z,6.18
2023-01-13T18:42:38.200Z,6.24
2023-01-13T18:45:50.655Z,6.20
2023-01-13T18:48:59.239Z,6.25
2023-01-13T18:52:08.092Z,6.20
2023-01-13T18:55:16.216Z,6.22
2023-01-13T18:58:25.068Z,6.26
2023-01-13T19:01:34.398Z,6.30
2023-01-13T19:04:46.081Z,6.28
2023-01-13T19:07:54.235Z,6.26
2023-01-13T19:11:13.265Z,6.23
2023-01-13T19:14:22.227Z,6.23
2023-01-13T19:17:40.326Z,6.20
2023-01-13T19:20:46.031Z,6.23
2023-01-13T19:24:03.278Z,6.26
2023-01-13T19:27:05.759Z,6.28
2023-01-13T19:30:21.239Z,6.26
2023-01-13T19:33:32.653Z,6.26
2023-01-13T19:36:41.255Z,6.33
2023-01-13T19:39:57.231Z,6.23
2023-01-13T19:43:06.501Z,6.22
2023-01-13T19:46:21.314Z,6.20
2023-01-13T19:49:23.705Z,6.26
2023-01-13T19:52:39.261Z,6.29
2023-01-13T19:55:46.346Z,6.31
2023-01-13T19:59:01.295Z,6.24
2023-01-13T20:02:16.171Z,6.26
2023-01-13T20:05:27.311Z,6.37
2023-01-13T20:08:36.564Z,6.41
2023-01-13T20:11:45.269Z,6.39
2023-01-13T20:15:00.411Z,6.42
2023-01-13T20:18:09.248Z,6.25
2023-01-13T20:21:20.397Z,6.31
2023-01-13T20:24:29.281Z,6.25
2023-01-13T20:27:37.903Z,6.23
2023-01-13T20:30:47.296Z,6.24
2023-01-13T20:33:56.057Z,6.21
2023-01-13T20:37:04.263Z,6.19
2023-01-13T20:40:15.401Z,6.14
2023-01-13T20:43:24.281Z,6.21
2023-01-13T20:46:39.292Z,6.10
2023-01-13T20:49:41.328Z,5.92
2023-01-13T20:52:56.287Z,5.85
2023-01-13T20:55:58.263Z,5.96
2023-01-13T20:59:14.311Z,6.03
2023-01-13T21:02:23.189Z,6.03
2023-01-13T21:05:31.292Z,6.06
2023-01-13T21:08:46.313Z,6.07
2023-01-13T21:11:50.056Z,6.09
2023-01-13T21:15:04.332Z,6.11
2023-01-13T21:18:06.271Z,6.08
2023-01-13T21:21:21.308Z,6.00
2023-01-13T21:24:23.923Z,5.96
2023-01-13T21:27:39.340Z,5.97
2023-01-13T21:30:49.307Z,6.05
2023-01-13T21:33:58.431Z,5.97
2023-01-13T21:37:06.320Z,6.03
2023-01-13T21:40:22.382Z,5.96
2023-01-13T21:43:37.299Z,5.99
2023-01-13T21:46:52.329Z,6.00
2023-01-13T21:49:54.295Z,6.00
2023-01-13T21:53:09.311Z,5.95
2023-01-13T21:56:11.220Z,5.87
2023-01-13T21:59:26.343Z,5.71
2023-01-13T22:02:28.359Z,5.67
2023-01-13T22:05:44.295Z,5.43
2023-01-13T22:08:46.364Z,5.51
2023-01-13T22:12:01.310Z,5.36
2023-01-13T22:15:10.312Z,5.46
2023-01-13T22:18:25.310Z,5.58
2023-01-13T22:21:34.331Z,5.72
2023-01-13T22:24:50.334Z,5.81
2023-01-13T22:27:52.131Z,5.95
2023-01-13T22:31:08.309Z,5.94
2023-01-13T22:34:12.186Z,5.89
2023-01-13T22:37:27.363Z,5.91
2023-01-13T22:40:29.861Z,5.98
2023-01-13T22:43:51.340Z,6.05
2023-01-13T22:46:59.347Z,6.02
2023-01-13T22:50:15.320Z,6.03
2023-01-13T22:53:18.661Z,6.12
2023-01-13T22:56:33.418Z,6.10
2023-01-13T22:59:42.367Z,6.18
2023-01-13T23:02:51.035Z,6.20
2023-01-13T23:06:03.384Z,6.22
2023-01-13T23:09:11.967Z,6.20
2023-01-13T23:12:20.365Z,6.16
2023-01-13T23:15:36.380Z,6.23
2023-01-13T23:18:38.729Z,6.21
2023-01-13T23:21:54.395Z,6.18
2023-01-13T23:24:56.210Z,6.14
2023-01-13T23:28:11.435Z,6.00
2023-01-13T23:31:16.481Z,5.94
2023-01-13T23:34:31.363Z,5.81
2023-01-13T23:37:39.380Z,5.86
2023-01-13T23:40:54.416Z,5.91
2023-01-13T23:44:02.712Z,6.00
2023-01-13T23:47:17.407Z,6.06
2023-01-13T23:50:26.339Z,5.97
2023-01-13T23:53:40.099Z,6.00
2023-01-13T23:56:49.413Z,6.06
2023-01-13T23:59:58.004Z,6.06
